createdAt,value
2019-03-04T00:03:26.814Z,66.30
2019-03-04T00:13:28.924Z,65.20
2019-03-04T00:23:30.998Z,64.90
2019-03-04T00:33:33.296Z,64.50
2019-03-04T00:43:35.218Z,64.40
2019-03-04T00:53:37.408Z,64.20
2019-03-04T01:03:39.387Z,63.60
2019-03-04T01:13:41.751Z,63.20
2019-03-04T01:23:44.031Z,62.90
2019-03-04T01:33:45.958Z,61.90
2019-03-04T01:43:47.944Z,61.30
2019-03-04T01:53:50.124Z,61.10
2019-03-04T02:03:52.473Z,61.20
2019-03-04T02:13:56.204Z,61.40
2019-03-04T02:24:19.743Z,61.40
2019-03-04T02:34:21.455Z,61.90
2019-03-04T02:44:23.430Z,61.30
2019-03-04T02:54:25.659Z,61.30
2019-03-04T03:04:47.103Z,60.70
2019-03-04T03:14:49.072Z,59.80
2019-03-04T03:24:51.383Z,59.40
2019-03-04T03:34:53.336Z,58.20
2019-03-04T03:44:55.381Z,57.00
2019-03-04T03:54:57.393Z,56.70
2019-03-04T04:04:59.360Z,56.90
2019-03-04T04:15:01.281Z,57.00
2019-03-04T04:25:03.959Z,55.40
2019-03-04T04:35:06.263Z,53.30
2019-03-04T04:45:08.222Z,52.50
2019-03-04T04:55:10.872Z,52.20
2019-03-04T05:05:13.156Z,52.10
2019-03-04T05:15:16.405Z,52.00
2019-03-04T05:25:18.640Z,52.00
2019-03-04T05:35:21.123Z,52.10
2019-03-04T05:45:24.308Z,52.40
2019-03-04T05:55:26.240Z,52.80
2019-03-04T06:05:28.330Z,53.00
2019-03-04T06:15:30.614Z,56.70
2019-03-04T06:25:34.510Z,61.60
2019-03-04T06:35:36.504Z,63.80
2019-03-04T06:45:38.468Z,66.10
2019-03-04T06:56:03.590Z,66.00
2019-03-04T07:06:05.586Z,63.10
2019-03-04T07:16:07.531Z,62.60
2019-03-04T07:26:09.578Z,62.20
2019-03-04T07:36:30.964Z,61.20
2019-03-04T07:46:33.342Z,59.60
2019-03-04T07:56:35.930Z,58.70
2019-03-04T08:06:37.973Z,57.30
2019-03-04T08:16:40.107Z,56.60
2019-03-04T08:26:42.795Z,56.50
2019-03-04T08:36:44.786Z,55.60
2019-03-04T08:46:47.102Z,54.80
2019-03-04T08:56:49.064Z,53.90
2019-03-04T09:06:51.028Z,52.50
2019-03-04T09:16:53.285Z,51.20
2019-03-04T09:26:55.779Z,50.00
2019-03-04T09:36:57.704Z,49.50
2019-03-04T09:46:59.659Z,50.00
2019-03-04T09:57:01.698Z,50.10
2019-03-04T10:07:41.586Z,49.10
2019-03-04T10:18:13.223Z,47.20
2019-03-04T10:28:54.314Z,49.40
2019-03-04T10:39:22.391Z,50.20
2019-03-04T10:49:22.526Z,50.20
2019-03-04T10:59:25.173Z,50.60
2019-03-04T11:09:28.167Z,50.70
2019-03-04T11:19:30.426Z,54.90
2019-03-04T11:29:32.556Z,57.70
2019-03-04T11:39:34.484Z,61.70
2019-03-04T11:49:36.669Z,61.60
2019-03-04T11:59:40.943Z,61.60
2019-03-04T12:09:42.967Z,58.70
2019-03-04T12:19:46.189Z,55.90
2019-03-04T12:29:48.206Z,53.50
2019-03-04T12:39:52.012Z,52.70
2019-03-04T12:49:54.148Z,52.20
2019-03-04T12:59:57.305Z,51.40
2019-03-04T13:10:00.099Z,50.20
2019-03-04T13:20:02.655Z,50.80
2019-03-04T13:30:06.517Z,51.20
2019-03-04T13:40:09.874Z,48.90
2019-03-04T13:50:17.038Z,50.10
2019-03-04T14:00:19.845Z,49.70
2019-03-04T14:10:22.554Z,48.60
2019-03-04T14:20:24.510Z,47.70
2019-03-04T14:30:26.476Z,47.10
2019-03-04T14:40:28.743Z,44.60
2019-03-04T14:50:30.797Z,44.80
2019-03-04T15:00:34.048Z,44.50
2019-03-04T15:10:36.261Z,43.30
2019-03-04T15:20:38.459Z,43.50
2019-03-04T15:30:41.793Z,43.50
2019-03-04T15:40:44.437Z,43.10
2019-03-04T15:50:46.818Z,42.50
2019-03-04T16:00:48.763Z,41.90
2019-03-04T16:10:50.731Z,41.60
2019-03-04T16:20:52.763Z,41.30
2019-03-04T16:30:54.696Z,41.00
2019-03-04T16:40:56.745Z,40.50
2019-03-04T16:50:59.325Z,40.70
2019-03-04T17:01:01.435Z,41.60
2019-03-04T17:11:03.822Z,42.00
2019-03-04T17:21:05.768Z,43.10
2019-03-04T17:31:08.447Z,45.00
2019-03-04T17:41:10.598Z,45.50
2019-03-04T17:51:12.807Z,46.10
2019-03-04T18:01:14.983Z,46.70
2019-03-04T18:11:17.353Z,47.00
2019-03-04T18:21:19.627Z,47.30
2019-03-04T18:32:09.542Z,48.00
2019-03-04T18:42:55.023Z,48.60
2019-03-04T18:52:59.266Z,48.80
2019-03-04T19:03:01.291Z,48.80
2019-03-04T19:13:03.241Z,49.10
2019-03-04T19:23:05.558Z,49.90
2019-03-04T19:33:08.632Z,50.40
2019-03-04T19:43:10.611Z,51.00
2019-03-04T19:53:12.836Z,51.70
2019-03-04T20:03:16.357Z,52.30
2019-03-04T20:13:18.326Z,52.80
2019-03-04T20:23:20.367Z,53.00
2019-03-04T20:33:22.640Z,53.20
2019-03-04T20:43:25.178Z,53.20
2019-03-04T20:53:27.778Z,53.20
2019-03-04T21:03:34.817Z,53.40
2019-03-04T21:13:35.784Z,55.70
2019-03-04T21:23:38.175Z,60.70
2019-03-04T21:34:21.522Z,61.40
2019-03-04T21:44:59.976Z,62.40
2019-03-04T21:55:04.927Z,63.50
2019-03-04T22:05:10.386Z,64.00
2019-03-04T22:15:13.067Z,64.50
2019-03-04T22:25:15.223Z,65.40
2019-03-04T22:35:18.974Z,65.30
2019-03-04T22:45:21.905Z,65.40
2019-03-04T22:55:29.573Z,64.50
2019-03-04T23:05:31.884Z,63.80
2019-03-04T23:15:35.045Z,63.60
2019-03-04T23:25:37.362Z,63.40
2019-03-04T23:35:39.296Z,63.30
2019-03-04T23:45:41.737Z,63.00
2019-03-04T23:55:44.475Z,62.80
